createdAt,value
2023-10-26T00:00:37.780Z,100.00
2023-10-26T00:03:04.533Z,100.00
2023-10-26T00:05:31.104Z,100.00
2023-10-26T00:07:57.824Z,100.00
2023-10-26T00:10:24.299Z,100.00
2023-10-26T00:12:50.800Z,100.00
2023-10-26T00:15:17.279Z,100.00
2023-10-26T00:17:43.973Z,100.00
2023-10-26T00:20:10.970Z,100.00
2023-10-26T00:22:37.486Z,100.00
2023-10-26T00:25:04.264Z,100.00
2023-10-26T00:27:30.677Z,100.00
2023-10-26T00:29:57.112Z,100.00
2023-10-26T00:32:23.610Z,100.00
2023-10-26T00:34:51.823Z,100.00
2023-10-26T00:37:18.321Z,100.00
2023-10-26T00:39:45.224Z,100.00
2023-10-26T00:42:13.058Z,100.00
2023-10-26T00:44:39.598Z,100.00
2023-10-26T00:47:06.672Z,100.00
2023-10-26T00:49:33.720Z,100.00
2023-10-26T00:52:02.513Z,100.00
2023-10-26T00:54:29.640Z,100.00
2023-10-26T00:56:56.951Z,100.00
2023-10-26T00:59:27.757Z,100.00
2023-10-26T01:01:56.377Z,100.00
2023-10-26T01:04:22.891Z,100.00
2023-10-26T01:06:49.346Z,100.00
2023-10-26T01:09:16.073Z,100.00
2023-10-26T01:11:43.695Z,100.00
2023-10-26T01:14:10.392Z,100.00
2023-10-26T01:16:37.624Z,100.00
2023-10-26T01:19:05.319Z,100.00
2023-10-26T01:21:32.618Z,100.00
2023-10-26T01:23:59.038Z,100.00
2023-10-26T01:26:25.570Z,100.00
2023-10-26T01:28:51.979Z,100.00
2023-10-26T01:31:19.311Z,100.00
2023-10-26T01:33:46.620Z,100.00
2023-10-26T01:36:13.139Z,100.00
2023-10-26T01:38:39.678Z,100.00
2023-10-26T01:41:06.426Z,100.00
2023-10-26T01:43:33.050Z,100.00
2023-10-26T01:45:59.515Z,100.00
2023-10-26T01:48:27.155Z,100.00
2023-10-26T01:50:54.505Z,100.00
2023-10-26T01:53:24.760Z,100.00
2023-10-26T01:55:51.299Z,100.00
2023-10-26T01:58:17.744Z,100.00
2023-10-26T02:00:44.500Z,100.00
2023-10-26T02:03:11.091Z,100.00
2023-10-26T02:05:37.768Z,100.00
2023-10-26T02:08:04.376Z,100.00
2023-10-26T02:10:30.765Z,100.00
2023-10-26T02:12:57.960Z,100.00
2023-10-26T02:15:24.739Z,100.00
2023-10-26T02:17:51.498Z,100.00
2023-10-26T02:20:18.361Z,100.00
2023-10-26T02:22:44.863Z,100.00
2023-10-26T02:25:11.381Z,100.00
2023-10-26T02:27:37.791Z,100.00
2023-10-26T02:30:04.797Z,100.00
2023-10-26T02:32:31.419Z,100.00
2023-10-26T02:34:57.867Z,100.00
2023-10-26T02:37:24.406Z,100.00
2023-10-26T02:39:50.818Z,100.00
2023-10-26T02:42:17.288Z,100.00
2023-10-26T02:44:45.461Z,100.00
2023-10-26T02:47:12.063Z,100.00
2023-10-26T02:49:38.620Z,100.00
2023-10-26T02:52:05.457Z,100.00
2023-10-26T02:54:32.007Z,100.00
2023-10-26T02:56:58.605Z,100.00
2023-10-26T02:59:25.070Z,100.00
2023-10-26T03:01:51.659Z,100.00
2023-10-26T03:04:18.189Z,100.00
2023-10-26T03:06:44.703Z,100.00
2023-10-26T03:09:11.305Z,100.00
2023-10-26T03:11:37.977Z,100.00
2023-10-26T03:14:05.413Z,100.00
2023-10-26T03:16:33.549Z,100.00
2023-10-26T03:19:00.062Z,100.00
2023-10-26T03:21:26.568Z,100.00
2023-10-26T03:23:55.844Z,100.00
2023-10-26T03:26:23.212Z,100.00
2023-10-26T03:28:50.806Z,100.00
2023-10-26T03:31:17.827Z,100.00
2023-10-26T03:33:44.348Z,100.00
2023-10-26T03:36:23.405Z,100.00
2023-10-26T03:38:51.457Z,100.00
2023-10-26T03:41:21.209Z,100.00
2023-10-26T03:43:48.014Z,100.00
2023-10-26T03:46:15.655Z,100.00
2023-10-26T03:48:42.203Z,100.00
2023-10-26T03:51:10.268Z,100.00
2023-10-26T03:53:36.767Z,100.00
2023-10-26T03:56:03.557Z,100.00
2023-10-26T03:58:30.101Z,100.00
2023-10-26T04:00:58.006Z,100.00
2023-10-26T04:03:25.320Z,100.00
2023-10-26T04:05:51.829Z,100.00
2023-10-26T04:08:18.302Z,100.00
2023-10-26T04:10:45.160Z,100.00
2023-10-26T04:13:11.640Z,100.00
2023-10-26T04:15:38.047Z,100.00
2023-10-26T04:18:06.942Z,100.00
2023-10-26T04:20:33.509Z,100.00
2023-10-26T04:22:59.900Z,100.00
2023-10-26T04:25:42.170Z,100.00
2023-10-26T04:28:17.031Z,100.00
2023-10-26T04:30:50.233Z,100.00
2023-10-26T04:33:20.331Z,100.00
2023-10-26T04:35:48.449Z,100.00
2023-10-26T04:38:15.478Z,100.00
2023-10-26T04:40:43.643Z,100.00
2023-10-26T04:43:10.440Z,100.00
2023-10-26T04:45:37.046Z,100.00
2023-10-26T04:48:04.183Z,100.00
2023-10-26T04:50:33.618Z,100.00
2023-10-26T04:53:00.661Z,100.00
2023-10-26T04:55:35.128Z,100.00
2023-10-26T04:58:02.798Z,100.00
2023-10-26T05:00:32.267Z,100.00
2023-10-26T05:02:58.994Z,100.00
2023-10-26T05:05:25.720Z,100.00
2023-10-26T05:07:52.215Z,100.00
2023-10-26T05:10:18.892Z,100.00
2023-10-26T05:12:45.375Z,100.00
2023-10-26T05:15:11.921Z,100.00
2023-10-26T05:17:39.244Z,100.00
2023-10-26T05:20:06.812Z,100.00
2023-10-26T05:22:33.844Z,100.00
2023-10-26T05:25:06.464Z,100.00
2023-10-26T05:27:36.458Z,100.00
2023-10-26T05:30:04.007Z,100.00
2023-10-26T05:32:30.563Z,100.00
2023-10-26T05:34:57.021Z,100.00
2023-10-26T05:37:23.511Z,100.00
2023-10-26T05:39:49.931Z,100.00
2023-10-26T05:42:16.461Z,100.00
2023-10-26T05:44:43.187Z,100.00
2023-10-26T05:47:10.214Z,100.00
2023-10-26T05:49:36.914Z,100.00
2023-10-26T05:52:04.600Z,100.00
2023-10-26T05:54:31.156Z,100.00
2023-10-26T05:56:57.703Z,100.00
2023-10-26T05:59:24.237Z,100.00
2023-10-26T06:01:50.807Z,100.00
2023-10-26T06:04:17.377Z,100.00
2023-10-26T06:06:43.820Z,100.00
2023-10-26T06:09:11.768Z,100.00
2023-10-26T06:11:38.901Z,100.00
2023-10-26T06:14:05.668Z,100.00
2023-10-26T06:16:32.323Z,100.00
2023-10-26T06:18:58.812Z,100.00
2023-10-26T06:21:25.395Z,100.00
2023-10-26T06:23:51.877Z,100.00
2023-10-26T06:26:20.678Z,100.00
2023-10-26T06:28:49.847Z,100.00
2023-10-26T06:31:16.526Z,100.00
2023-10-26T06:33:44.178Z,100.00
2023-10-26T06:36:14.113Z,100.00
2023-10-26T06:38:41.814Z,100.00
2023-10-26T06:41:10.354Z,100.00
2023-10-26T06:43:38.271Z,100.00
2023-10-26T06:46:05.421Z,100.00
2023-10-26T06:48:32.295Z,100.00
2023-10-26T06:51:03.356Z,100.00
2023-10-26T06:53:30.624Z,100.00
2023-10-26T06:55:58.731Z,100.00
2023-10-26T06:58:25.459Z,100.00
2023-10-26T07:00:53.168Z,100.00
2023-10-26T07:03:21.367Z,100.00
2023-10-26T07:05:49.365Z,100.00
2023-10-26T07:08:16.737Z,100.00
2023-10-26T07:10:43.332Z,100.00
2023-10-26T07:13:09.784Z,100.00
2023-10-26T07:15:37.711Z,100.00
2023-10-26T07:18:05.565Z,100.00
2023-10-26T07:20:32.200Z,100.00
2023-10-26T07:22:58.645Z,100.00
2023-10-26T07:25:25.180Z,100.00
2023-10-26T07:27:51.913Z,100.00
2023-10-26T07:30:18.567Z,100.00
2023-10-26T07:32:45.192Z,100.00
2023-10-26T07:35:11.980Z,100.00
2023-10-26T07:37:41.294Z,100.00
2023-10-26T07:40:28.539Z,100.00
2023-10-26T07:42:55.000Z,100.00
2023-10-26T07:45:21.433Z,100.00
2023-10-26T07:47:48.001Z,100.00
2023-10-26T07:50:18.290Z,100.00
2023-10-26T07:52:44.822Z,100.00
2023-10-26T07:55:11.394Z,100.00
2023-10-26T07:57:38.204Z,100.00
2023-10-26T08:00:06.466Z,100.00
2023-10-26T08:02:34.538Z,100.00
2023-10-26T08:05:02.382Z,100.00
2023-10-26T08:07:28.991Z,100.00
2023-10-26T08:09:55.504Z,100.00
2023-10-26T08:12:21.972Z,100.00
2023-10-26T08:16:05.266Z,100.00
2023-10-26T08:17:38.972Z,100.00
2023-10-26T08:20:08.588Z,100.00
2023-10-26T08:22:36.247Z,100.00
2023-10-26T08:25:04.719Z,100.00
2023-10-26T08:27:32.512Z,100.00
2023-10-26T08:29:59.136Z,100.00
2023-10-26T08:32:25.750Z,100.00
2023-10-26T08:34:52.302Z,100.00
2023-10-26T08:37:19.099Z,100.00
2023-10-26T08:39:45.682Z,100.00
2023-10-26T08:42:13.827Z,100.00
2023-10-26T08:44:43.605Z,100.00
2023-10-26T08:47:13.354Z,100.00
2023-10-26T08:49:50.230Z,100.00
2023-10-26T08:52:23.486Z,100.00
2023-10-26T08:54:51.483Z,100.00
2023-10-26T08:57:18.012Z,100.00
2023-10-26T08:59:44.553Z,100.00
2023-10-26T09:02:11.242Z,100.00
2023-10-26T09:04:37.908Z,100.00
2023-10-26T09:07:04.555Z,100.00
2023-10-26T09:09:44.103Z,100.00
2023-10-26T09:12:11.001Z,100.00
2023-10-26T09:14:37.451Z,100.00
2023-10-26T09:17:05.099Z,100.00
2023-10-26T09:19:39.536Z,100.00
2023-10-26T09:22:08.643Z,100.00
2023-10-26T09:24:35.087Z,100.00
2023-10-26T09:27:01.735Z,100.00
2023-10-26T09:29:41.360Z,100.00
2023-10-26T09:32:09.638Z,100.00
2023-10-26T09:34:44.652Z,100.00
2023-10-26T09:37:11.852Z,100.00
2023-10-26T09:39:40.059Z,100.00
2023-10-26T09:42:12.155Z,100.00
2023-10-26T09:44:39.851Z,100.00
2023-10-26T09:47:07.778Z,100.00
2023-10-26T09:49:34.685Z,100.00
2023-10-26T09:52:01.272Z,100.00
2023-10-26T09:54:32.469Z,100.00
2023-10-26T09:57:22.447Z,100.00
2023-10-26T09:59:53.077Z,100.00
2023-10-26T10:02:20.812Z,100.00
2023-10-26T10:04:48.106Z,100.00
2023-10-26T10:07:19.003Z,100.00
2023-10-26T10:10:03.571Z,100.00
2023-10-26T10:12:30.054Z,100.00
2023-10-26T10:15:15.425Z,100.00
2023-10-26T10:17:45.543Z,100.00
2023-10-26T10:20:15.287Z,100.00
2023-10-26T10:22:41.661Z,100.00
2023-10-26T10:25:12.432Z,100.00
2023-10-26T10:27:40.265Z,100.00
2023-10-26T10:30:10.385Z,100.00
2023-10-26T10:32:46.244Z,100.00
2023-10-26T10:35:15.243Z,100.00
2023-10-26T10:38:20.301Z,100.00
2023-10-26T10:40:56.347Z,100.00
2023-10-26T10:43:44.591Z,100.00
2023-10-26T10:46:22.729Z,100.00
2023-10-26T10:48:59.205Z,100.00
2023-10-26T10:51:33.250Z,100.00
2023-10-26T10:54:06.141Z,99.46
2023-10-26T10:56:42.801Z,96.20
2023-10-26T10:59:35.681Z,95.64
2023-10-26T11:02:13.765Z,96.78
2023-10-26T11:05:05.265Z,96.62
2023-10-26T11:07:32.401Z,97.68
2023-10-26T11:10:00.497Z,97.51
2023-10-26T11:12:27.953Z,94.09
2023-10-26T11:14:55.134Z,88.01
2023-10-26T11:17:23.740Z,83.95
2023-10-26T11:19:51.288Z,83.25
2023-10-26T11:22:19.321Z,80.18
2023-10-26T11:24:46.641Z,77.24
2023-10-26T11:27:15.307Z,73.40
2023-10-26T11:29:42.650Z,69.02
2023-10-26T11:32:19.649Z,68.71
2023-10-26T11:35:14.548Z,69.94
2023-10-26T11:37:55.233Z,68.24
2023-10-26T11:40:30.712Z,65.87
2023-10-26T11:42:59.477Z,64.87
2023-10-26T11:45:27.830Z,65.27
2023-10-26T11:47:56.762Z,64.82
2023-10-26T11:50:24.419Z,64.83
2023-10-26T11:52:52.689Z,63.96
2023-10-26T11:55:20.657Z,63.01
2023-10-26T11:57:47.423Z,61.12
2023-10-26T12:00:15.468Z,59.96
2023-10-26T12:02:42.569Z,58.63
2023-10-26T12:05:13.235Z,56.64
2023-10-26T12:07:39.693Z,56.59
2023-10-26T12:10:06.528Z,56.76
2023-10-26T12:12:33.227Z,57.58
2023-10-26T12:14:59.660Z,59.78
2023-10-26T12:17:26.124Z,61.44
2023-10-26T12:19:52.678Z,61.93
2023-10-26T12:22:20.196Z,62.23
2023-10-26T12:24:46.807Z,63.38
2023-10-26T12:27:17.364Z,65.21
2023-10-26T12:29:44.784Z,65.57
2023-10-26T12:32:11.945Z,67.50
2023-10-26T12:34:38.723Z,68.23
2023-10-26T12:37:05.936Z,69.55
2023-10-26T12:39:33.674Z,69.88
2023-10-26T12:42:01.196Z,70.71
2023-10-26T12:44:28.063Z,71.80
2023-10-26T12:46:55.321Z,72.54
2023-10-26T12:49:24.578Z,72.98
2023-10-26T12:51:51.992Z,73.42
2023-10-26T12:54:19.190Z,73.94
2023-10-26T12:56:45.937Z,74.52
2023-10-26T12:59:12.839Z,74.72
2023-10-26T13:01:40.294Z,75.12
2023-10-26T13:04:06.986Z,75.44
2023-10-26T13:06:34.651Z,75.87
2023-10-26T13:09:02.498Z,76.92
2023-10-26T13:11:29.002Z,77.15
2023-10-26T13:13:55.644Z,77.84
2023-10-26T13:16:23.377Z,77.47
2023-10-26T13:18:50.758Z,77.76
2023-10-26T13:21:18.690Z,78.54
2023-10-26T13:23:45.762Z,78.46
2023-10-26T13:26:12.255Z,78.63
2023-10-26T13:28:38.736Z,79.04
2023-10-26T13:31:07.178Z,79.14
2023-10-26T13:33:34.712Z,78.95
2023-10-26T13:36:01.224Z,79.07
2023-10-26T13:38:27.679Z,79.17
2023-10-26T13:40:55.105Z,79.27
2023-10-26T13:43:21.576Z,79.43
2023-10-26T13:45:48.133Z,79.34
2023-10-26T13:48:16.108Z,80.00
2023-10-26T13:50:44.479Z,80.21
2023-10-26T13:53:12.673Z,80.14
2023-10-26T13:55:39.125Z,80.49
2023-10-26T13:58:08.706Z,80.38
2023-10-26T14:00:38.690Z,80.65
2023-10-26T14:03:05.768Z,80.68
2023-10-26T14:05:32.441Z,81.03
2023-10-26T14:07:59.600Z,80.75
2023-10-26T14:10:26.630Z,81.34
2023-10-26T14:12:53.455Z,81.70
2023-10-26T14:15:20.565Z,81.91
2023-10-26T14:17:47.259Z,81.95
2023-10-26T14:20:13.749Z,81.53
2023-10-26T14:22:40.199Z,82.03
2023-10-26T14:25:07.176Z,81.80
2023-10-26T14:27:35.170Z,81.64
2023-10-26T14:30:01.684Z,82.39
2023-10-26T14:32:28.255Z,82.38
2023-10-26T14:34:54.733Z,83.11
2023-10-26T14:37:21.182Z,83.34
2023-10-26T14:39:47.678Z,83.50
2023-10-26T14:42:16.258Z,84.14
2023-10-26T14:44:47.734Z,84.45
2023-10-26T14:47:14.273Z,84.41
2023-10-26T14:49:40.769Z,84.33
2023-10-26T14:52:07.420Z,84.05
2023-10-26T14:54:34.041Z,83.61
2023-10-26T14:57:01.261Z,84.12
2023-10-26T14:59:27.710Z,84.16
2023-10-26T15:01:54.168Z,84.01
2023-10-26T15:04:20.658Z,83.96
2023-10-26T15:06:49.378Z,83.85
2023-10-26T15:10:20.040Z,83.96
2023-10-26T15:12:02.551Z,84.42
2023-10-26T15:14:29.034Z,85.07
2023-10-26T15:16:55.880Z,84.82
2023-10-26T15:19:22.860Z,85.13
2023-10-26T15:21:49.428Z,85.33
2023-10-26T15:24:16.009Z,85.13
2023-10-26T15:26:42.455Z,85.58
2023-10-26T15:29:08.968Z,85.61
2023-10-26T15:31:35.463Z,86.03
2023-10-26T15:34:01.908Z,85.90
2023-10-26T15:36:28.461Z,86.17
2023-10-26T15:38:55.167Z,85.40
2023-10-26T15:41:21.577Z,86.17
2023-10-26T15:43:48.035Z,86.63
2023-10-26T15:46:14.831Z,86.76
2023-10-26T15:49:32.847Z,86.13
2023-10-26T15:51:27.889Z,86.24
2023-10-26T15:53:54.317Z,86.13
2023-10-26T15:56:20.811Z,85.82
2023-10-26T15:58:54.581Z,86.09
2023-10-26T16:01:21.807Z,85.94
2023-10-26T16:03:48.338Z,86.10
2023-10-26T16:06:15.403Z,85.89
2023-10-26T16:08:42.691Z,86.46
2023-10-26T16:11:13.785Z,86.55
2023-10-26T16:13:43.811Z,86.73
2023-10-26T16:16:10.360Z,86.85
2023-10-26T16:18:36.902Z,86.95
2023-10-26T16:21:03.694Z,87.13
2023-10-26T16:23:30.372Z,86.69
2023-10-26T16:25:56.911Z,86.72
2023-10-26T16:28:23.304Z,85.84
2023-10-26T16:30:56.661Z,86.65
2023-10-26T16:33:23.438Z,87.17
2023-10-26T16:35:49.888Z,87.78
2023-10-26T16:38:16.387Z,87.69
2023-10-26T16:40:43.826Z,87.58
2023-10-26T16:43:10.416Z,87.62
2023-10-26T16:45:37.695Z,87.66
2023-10-26T16:48:05.168Z,87.59
2023-10-26T16:50:31.741Z,87.22
2023-10-26T16:53:01.093Z,87.55
2023-10-26T16:55:28.183Z,87.82
2023-10-26T16:57:54.967Z,88.12
2023-10-26T17:00:21.486Z,88.27
2023-10-26T17:02:48.487Z,88.32
2023-10-26T17:05:14.996Z,88.01
2023-10-26T17:07:43.209Z,88.07
2023-10-26T17:10:10.482Z,88.72
2023-10-26T17:12:42.306Z,88.65
2023-10-26T17:15:10.836Z,88.24
2023-10-26T17:17:37.289Z,88.18
2023-10-26T17:20:04.524Z,88.40
2023-10-26T17:22:30.986Z,88.75
2023-10-26T17:24:57.520Z,88.83
2023-10-26T17:27:30.310Z,89.13
2023-10-26T17:29:56.825Z,89.15
2023-10-26T17:32:23.259Z,89.33
2023-10-26T17:34:49.990Z,89.47
2023-10-26T17:37:16.697Z,89.65
2023-10-26T17:39:43.584Z,90.02
2023-10-26T17:42:10.232Z,90.01
2023-10-26T17:44:36.730Z,90.69
2023-10-26T17:47:03.479Z,91.00
2023-10-26T17:49:29.981Z,91.25
2023-10-26T17:51:56.434Z,91.37
2023-10-26T17:54:22.931Z,91.69
2023-10-26T17:56:49.407Z,91.97
2023-10-26T17:59:15.932Z,91.86
2023-10-26T18:01:42.468Z,91.80
2023-10-26T18:04:09.733Z,91.81
2023-10-26T18:06:36.331Z,92.31
2023-10-26T18:09:02.841Z,92.28
2023-10-26T18:11:29.329Z,92.28
2023-10-26T18:13:55.793Z,92.86
2023-10-26T18:16:22.371Z,92.77
2023-10-26T18:18:48.911Z,92.89
2023-10-26T18:21:15.471Z,92.97
2023-10-26T18:23:42.146Z,92.95
2023-10-26T18:26:10.968Z,92.96
2023-10-26T18:28:41.217Z,92.85
2023-10-26T18:31:17.029Z,92.79
2023-10-26T18:33:49.747Z,93.04
2023-10-26T18:36:18.732Z,92.87
2023-10-26T18:38:45.993Z,93.10
2023-10-26T18:41:20.217Z,93.18
2023-10-26T18:43:48.715Z,93.41
2023-10-26T18:46:15.411Z,93.20
2023-10-26T18:48:42.003Z,93.32
2023-10-26T18:51:09.560Z,93.47
2023-10-26T18:53:37.168Z,93.36
2023-10-26T18:56:07.119Z,93.60
2023-10-26T18:58:34.670Z,93.73
2023-10-26T19:01:01.111Z,93.66
2023-10-26T19:03:27.734Z,93.63
2023-10-26T19:05:54.147Z,93.24
2023-10-26T19:08:20.766Z,93.60
2023-10-26T19:10:48.015Z,93.89
2023-10-26T19:13:15.078Z,93.81
2023-10-26T19:15:41.919Z,93.94
2023-10-26T19:18:08.534Z,93.90
2023-10-26T19:20:47.668Z,94.15
2023-10-26T19:23:14.224Z,94.38
2023-10-26T19:25:41.412Z,94.69
2023-10-26T19:28:07.921Z,94.57
2023-10-26T19:30:34.429Z,94.35
2023-10-26T19:33:01.324Z,94.66
2023-10-26T19:35:29.198Z,94.64
2023-10-26T19:37:56.498Z,94.55
2023-10-26T19:40:23.632Z,94.34
2023-10-26T19:42:50.484Z,94.47
2023-10-26T19:45:17.174Z,94.76
2023-10-26T19:47:44.284Z,94.64
2023-10-26T19:50:11.923Z,94.79
2023-10-26T19:52:39.069Z,95.00
2023-10-26T19:55:09.908Z,95.02
2023-10-26T19:57:36.826Z,94.99
2023-10-26T20:00:07.792Z,95.34
2023-10-26T20:02:34.351Z,95.26
2023-10-26T20:05:00.964Z,95.11
2023-10-26T20:07:27.552Z,95.50
2023-10-26T20:09:54.047Z,95.56
2023-10-26T20:12:20.878Z,95.62
2023-10-26T20:14:47.455Z,95.96
2023-10-26T20:17:14.014Z,95.87
2023-10-26T20:19:40.558Z,96.04
2023-10-26T20:22:08.443Z,96.11
2023-10-26T20:24:34.921Z,96.19
2023-10-26T20:27:04.702Z,96.09
2023-10-26T20:29:31.174Z,96.06
2023-10-26T20:31:58.968Z,96.35
2023-10-26T20:34:25.910Z,96.42
2023-10-26T20:36:52.663Z,96.54
2023-10-26T20:39:19.205Z,96.64
2023-10-26T20:41:45.814Z,96.77
2023-10-26T20:44:15.338Z,96.71
2023-10-26T20:46:41.825Z,96.88
2023-10-26T20:49:12.178Z,96.88
2023-10-26T20:51:40.730Z,97.03
2023-10-26T20:54:07.651Z,97.11
2023-10-26T20:56:34.084Z,97.30
2023-10-26T20:59:00.649Z,97.47
2023-10-26T21:01:27.366Z,97.83
2023-10-26T21:03:53.878Z,98.14
2023-10-26T21:06:20.568Z,98.17
2023-10-26T21:08:49.840Z,98.37
2023-10-26T21:11:17.807Z,98.62
2023-10-26T21:13:44.695Z,98.54
2023-10-26T21:16:11.345Z,98.65
2023-10-26T21:18:37.930Z,98.55
2023-10-26T21:21:08.470Z,98.57
2023-10-26T21:23:36.436Z,98.66
2023-10-26T21:26:07.215Z,98.52
2023-10-26T21:28:35.227Z,98.83
2023-10-26T21:31:02.218Z,99.18
2023-10-26T21:33:31.786Z,99.16
2023-10-26T21:35:58.322Z,99.27
2023-10-26T21:38:24.928Z,99.72
2023-10-26T21:40:51.433Z,99.54
2023-10-26T21:43:18.010Z,99.53
2023-10-26T21:45:47.278Z,99.86
2023-10-26T21:48:14.753Z,99.60
2023-10-26T21:50:41.868Z,99.99
2023-10-26T21:53:09.184Z,99.78
2023-10-26T21:55:38.383Z,99.61
2023-10-26T21:58:05.073Z,99.56
2023-10-26T22:00:32.242Z,99.69
2023-10-26T22:02:58.906Z,99.37
2023-10-26T22:05:26.909Z,99.95
2023-10-26T22:07:53.677Z,99.93
2023-10-26T22:10:20.666Z,99.97
2023-10-26T22:12:47.286Z,100.00
2023-10-26T22:15:13.878Z,100.00
2023-10-26T22:17:41.846Z,100.00
2023-10-26T22:20:09.620Z,100.00
2023-10-26T22:22:37.682Z,100.00
2023-10-26T22:25:04.775Z,100.00
2023-10-26T22:27:31.882Z,100.00
2023-10-26T22:29:58.386Z,100.00
2023-10-26T22:32:25.283Z,100.00
2023-10-26T22:34:52.338Z,100.00
2023-10-26T22:37:19.666Z,100.00
2023-10-26T22:39:46.469Z,100.00
2023-10-26T22:42:13.151Z,100.00
2023-10-26T22:44:42.649Z,100.00
2023-10-26T22:47:09.114Z,100.00
2023-10-26T22:49:35.633Z,100.00
2023-10-26T22:52:02.152Z,100.00
2023-10-26T22:54:28.561Z,100.00
2023-10-26T22:56:55.008Z,100.00
2023-10-26T22:59:21.853Z,100.00
2023-10-26T23:01:48.802Z,100.00
2023-10-26T23:04:15.671Z,100.00
2023-10-26T23:06:42.378Z,100.00
2023-10-26T23:09:10.136Z,100.00
2023-10-26T23:11:36.664Z,100.00
2023-10-26T23:14:03.161Z,100.00
2023-10-26T23:16:29.738Z,100.00
2023-10-26T23:18:56.966Z,100.00
2023-10-26T23:21:23.556Z,100.00
2023-10-26T23:23:49.991Z,100.00
2023-10-26T23:26:16.636Z,100.00
2023-10-26T23:28:43.122Z,100.00
2023-10-26T23:31:10.843Z,100.00
2023-10-26T23:33:37.944Z,100.00
2023-10-26T23:36:10.283Z,100.00
2023-10-26T23:38:37.140Z,100.00
2023-10-26T23:41:04.056Z,100.00
2023-10-26T23:43:30.510Z,100.00
2023-10-26T23:45:58.860Z,100.00
2023-10-26T23:48:25.722Z,100.00
2023-10-26T23:50:52.425Z,100.00
2023-10-26T23:53:19.832Z,100.00
2023-10-26T23:55:47.052Z,100.00
2023-10-26T23:58:13.868Z,100.00
